Latest Weather Observations for Port Augusta

IDS60801

Issued at 4:02 am CST Friday 30 September 2016 (issued every 30 minutes, with the page automatically refreshed every 10 minutes)

About weather observations | Map of weather stations | Latest weather observations for SA | Other Formats
Station Details ID: 018201 Name: PORT AUGUSTA AERO Lat: -32.51 Lon: 137.72 Height: 13.97 m
Data from the previous 72 hours. | See also: Recent months at Port Augusta
Date/Time
CST
Temp
°C
App
Temp
°C
Dew
Point
°C
Rel
Hum
%
Delta-T
°C
Wind Press
QNH
hPa
Press
MSL
hPa
Rain since
9am
mm
Dir  Spd
km/h
Gust
km/h
Spd
kts
Gust
kts
30/04:00am 9.9 3.9 5.5 74 2.0 W 26 33 14 18 1004.9 1004.9 0.0
30/03:30am 9.2 3.5 4.8 74 2.0 WNW 24 28 13 15 1004.8 1004.8 0.0
30/03:00am 9.6 4.2 4.6 71 2.2 WNW 22 30 12 16 1004.6 1004.6 0.0
30/02:30am 9.8 4.4 4.6 70 2.3 WNW 22 32 12 17 1005.0 1005.0 0.0
30/02:00am 9.7 4.7 4.5 70 2.3 WNW 20 32 11 17 1005.1 1005.1 0.0
30/01:30am 9.7 3.5 4.3 69 2.4 WNW 26 37 14 20 1005.0 1005.0 0.0
30/01:00am 9.8 3.6 4.2 68 2.5 WNW 26 35 14 19 1005.1 1005.1 0.0
30/12:30am 9.7 3.1 4.1 68 2.5 WNW 28 46 15 25 1004.9 1004.9 0.0
30/12:00am 10.0 2.1 4.2 67 2.6 WNW 35 50 19 27 1004.6 1004.6 0.0
 
Date/Time
CST
Temp
°C
App
Temp
°C
Dew
Point
°C
Rel
Hum
%
Delta-T
°C
Wind Press
QNH
hPa
Press
MSL
hPa
Rain since
9am
mm
Dir  Spd
km/h
Gust
km/h
Spd
kts
Gust
kts
29/11:30pm 10.2 3.4 5.0 70 2.4 WNW 30 43 16 23 1004.6 1004.6 0.0
29/11:00pm 10.4 2.6 5.0 69 2.4 W 35 48 19 26 1004.7 1004.7 0.0
29/10:41pm 10.6 1.7 5.2 69 2.5 W 41 61 22 33 1004.7 1004.7 0.0
29/10:30pm 10.7 3.5 5.7 71 2.3 WNW 33 48 18 26 1004.8 1004.8 0.0
29/10:00pm 10.8 3.6 5.8 71 2.3 W 33 46 18 25 1004.9 1004.9 0.0
29/09:31pm 11.0 3.9 5.7 70 2.4 W 32 50 17 27 1005.1 1005.1 0.0
29/09:30pm 11.0 3.7 5.5 69 2.5 W 33 50 18 27 1005.0 1005.0 0.0
29/09:23pm 11.1 4.8 5.8 70 2.5 W 28 50 15 27 1004.9 1004.9 0.0
29/09:00pm 11.0 3.8 6.0 71 2.3 W 33 46 18 25 1004.7 1004.7 0.0
29/08:30pm 11.0 2.7 6.2 72 2.3 W 39 56 21 30 1004.3 1004.3 0.0
29/08:00pm 11.1 3.2 6.3 72 2.2 W 37 52 20 28 1003.9 1003.9 0.0
29/07:30pm 11.3 3.7 6.0 70 2.5 W 35 48 19 26 1003.5 1003.5 0.0
29/07:00pm 11.7 3.3 5.8 67 2.7 W 39 54 21 29 1003.0 1003.0 0.0
29/06:30pm 11.9 2.7 5.5 65 3.0 W 43 63 23 34 1002.2 1002.2 0.0
29/06:01pm 12.1 1.6 5.5 64 3.1 W 50 69 27 37 1001.7 1001.7 0.0
29/06:00pm 12.1 1.2 5.5 64 3.1 W 52 69 28 37 1001.7 1001.7 0.0
29/05:32pm 12.6 1.7 5.5 62 3.3 W 52 70 28 38 1001.4 1001.4 0.0
29/05:30pm 12.7 1.8 5.4 61 3.4 WSW 52 69 28 37 1001.2 1001.2 0.0
29/05:15pm 12.9 2.0 5.6 61 3.4 W 52 70 28 38 1001.1 1001.1 0.0
29/05:00pm 13.1 1.8 5.5 60 3.6 WSW 54 69 29 37 1000.6 1000.6 0.0
29/04:32pm 13.4 2.9 5.6 59 3.7 W 50 69 27 37 1000.1 1000.1 0.0
29/04:30pm 13.5 3.0 5.4 58 3.8 W 50 63 27 34 1000.1 1000.1 0.0
29/04:01pm 14.0 2.1 5.4 56 4.0 WSW 57 76 31 41 999.4 999.4 0.0
29/04:00pm 13.9 2.1 5.5 57 4.0 WSW 57 74 31 40 999.4 999.4 0.0
29/03:30pm 14.2 3.4 5.8 57 4.0 WSW 52 70 28 38 999.1 999.1 0.0
29/03:00pm 14.4 3.0 6.5 59 3.8 W 56 78 30 42 998.6 998.6 0.0
29/02:30pm 14.4 2.0 6.3 58 3.9 W 61 83 33 45 998.0 998.0 0.0
29/02:00pm 13.4 2.1 7.8 69 2.8 WSW 57 78 31 42 997.6 997.6 0.0
29/01:30pm 14.6 1.7 5.9 56 4.2 WSW 63 83 34 45 997.0 997.0 0.0
29/01:00pm 14.2 1.1 6.8 61 3.6 W 65 83 35 45 996.7 996.7 0.0
29/12:30pm 14.8 1.2 6.1 56 4.2 WSW 67 89 36 48 996.2 996.2 0.0
29/12:00pm 14.7 1.5 6.5 58 4.0 WSW 65 89 35 48 996.0 996.0 0.0
29/11:30am 14.4 1.2 6.5 59 3.8 W 65 87 35 47 996.1 996.1 0.0
29/11:00am 14.6 2.7 6.9 60 3.8 W 59 82 32 44 996.0 996.0 0.0
29/10:30am 13.6 1.7 6.9 64 3.3 W 59 78 32 42 996.0 996.0 0.0
29/10:00am 13.2 1.1 6.1 62 3.4 W 59 85 32 46 995.6 995.6 0.0
29/09:30am 12.5 0.9 5.7 63 3.2 W 56 83 30 45 995.6 995.6 0.0
29/09:04am 11.9 0.6 5.5 65 3.0 W 54 72 29 39 995.4 995.4 0.0
29/09:00am 12.0 1.1 5.6 65 3.0 W 52 69 28 37 995.4 995.4 12.2
29/08:30am 12.0 0.3 5.4 64 3.1 WNW 56 76 30 41 995.3 995.3 12.2
29/08:04am 11.4 1.2 5.3 66 2.8 WNW 48 69 26 37 995.2 995.2 12.2
29/08:00am 11.6 0.3 5.5 66 2.8 WNW 54 70 29 38 995.1 995.1 12.2
29/07:30am 10.1 -0.5 4.9 70 2.4 WNW 50 70 27 38 994.8 994.8 12.2
29/07:00am 9.7 -1.4 4.5 70 2.3 WNW 52 74 28 40 994.3 994.3 12.2
29/06:30am 9.1 -2.5 4.1 71 2.2 NW 54 76 29 41 994.2 994.2 12.2
29/06:00am 8.8 -2.7 4.2 73 2.0 NW 54 76 29 41 993.8 993.8 12.2
29/05:30am 8.6 -1.4 4.4 75 1.9 NW 46 65 25 35 994.1 994.1 12.2
29/05:11am 9.0 -1.8 4.0 71 2.2 NW 50 70 27 38 994.4 994.4 12.2
29/05:00am 9.2 -1.7 3.8 69 2.4 NW 50 63 27 34 994.4 994.4 12.2
29/04:30am 9.1 -1.3 4.1 71 2.2 NW 48 67 26 36 994.6 994.6 12.2
29/04:05am 9.3 -1.6 3.7 68 2.4 NW 50 69 27 37 994.8 994.8 12.2
29/04:00am 9.4 -1.1 3.8 68 2.4 NW 48 61 26 33 994.7 994.7 12.2
29/03:30am 9.3 -0.4 3.7 68 2.5 NW 44 65 24 35 995.1 995.1 12.2
29/03:15am 9.0 -0.7 4.0 71 2.2 NW 44 63 24 34 995.2 995.2 12.2
29/03:00am 9.5 -1.4 3.5 66 2.6 NW 50 63 27 34 995.3 995.3 12.2
29/02:46am 9.4 -1.1 3.6 67 2.5 NW 48 67 26 36 995.4 995.4 12.2
29/02:30am 9.3 -1.2 3.5 67 2.5 NW 48 63 26 34 995.7 995.7 12.2
29/02:09am 9.3 -0.3 3.3 66 2.6 NW 43 61 23 33 996.1 996.1 12.2
29/02:00am 9.4 -0.2 3.6 67 2.5 WNW 43 57 23 31 996.2 996.2 12.2
29/01:51am 9.4 1.0 3.6 67 2.5 NW 37 57 20 31 996.3 996.3 12.2
29/01:30am 9.5 0.8 3.9 68 2.5 NW 39 50 21 27 996.5 996.5 12.2
29/01:00am 9.6 0.8 3.8 67 2.5 WNW 39 54 21 29 997.3 997.3 12.2
29/12:31am 10.1 0.3 3.6 64 2.8 NW 44 63 24 34 997.3 997.3 12.2
29/12:30am 10.1 0.5 3.6 64 2.9 NW 43 57 23 31 997.3 997.3 12.2
29/12:24am 10.1 1.3 3.8 65 2.8 NW 39 57 21 31 997.4 997.4 12.2
29/12:00am 9.8 1.9 4.2 68 2.5 NW 35 52 19 28 998.0 998.0 12.2
 
Date/Time
CST
Temp
°C
App
Temp
°C
Dew
Point
°C
Rel
Hum
%
Delta-T
°C
Wind Press
QNH
hPa
Press
MSL
hPa
Rain since
9am
mm
Dir  Spd
km/h
Gust
km/h
Spd
kts
Gust
kts
28/11:30pm 9.8 1.9 4.2 68 2.5 NW 35 50 19 27 998.6 998.6 12.2
28/11:00pm 9.9 2.0 4.1 67 2.6 WNW 35 44 19 24 999.2 999.2 12.2
28/10:42pm 9.9 2.5 3.9 66 2.6 NW 32 50 17 27 999.2 999.2 12.2
28/10:30pm 10.0 2.5 4.2 67 2.6 NW 33 46 18 25 999.4 999.4 12.2
28/10:00pm 10.1 2.7 3.8 65 2.8 NW 32 46 17 25 999.5 999.5 12.2
28/09:30pm 10.1 2.5 3.8 65 2.8 WNW 33 46 18 25 999.7 999.7 12.2
28/09:00pm 10.1 3.2 4.7 69 2.4 WNW 30 39 16 21 999.3 999.3 12.2
28/08:43pm 10.5 3.3 4.9 68 2.5 WNW 32 50 17 27 999.6 999.6 12.2
28/08:30pm 10.7 3.4 5.3 69 2.5 WNW 33 44 18 24 999.7 999.7 12.2
28/08:00pm 11.2 2.0 5.3 67 2.7 W 43 56 23 30 999.6 999.6 12.2
28/07:30pm 12.0 1.9 3.8 57 3.7 W 46 70 25 38 998.6 998.6 12.2
28/07:00pm 13.2 1.5 3.3 51 4.4 W 54 76 29 41 997.4 997.4 12.2
28/06:30pm 14.1 2.4 3.3 48 4.9 W 54 83 29 45 995.9 995.9 12.2
28/06:23pm 14.8 2.7 3.0 45 5.3 W 56 83 30 45 995.9 995.9 12.2
28/06:19pm 15.0 3.8 3.8 47 5.1 W 52 74 28 40 995.8 995.8 12.2
28/06:00pm 15.0 6.0 4.4 49 5.0 W 41 65 22 35 995.5 995.5 12.2
28/05:30pm 15.2 5.8 5.4 52 4.7 W 44 67 24 36 995.1 995.1 12.2
28/05:00pm 16.7 5.4 7.1 53 4.8 WSW 56 82 30 44 993.7 993.7 12.2
28/04:33pm 19.3 10.0 9.2 52 5.3 WSW 48 69 26 37 992.5 992.5 12.2
28/04:30pm 19.5 10.0 9.7 53 5.3 WSW 50 67 27 36 992.1 992.1 12.2
28/04:00pm 19.7 12.6 13.9 69 3.3 WSW 44 63 24 34 990.5 990.5 12.2
28/03:52pm 19.7 16.0 18.4 92 0.8 WSW 35 54 19 29 990.0 990.0 12.2
28/03:37pm 16.9 9.5 16.3 96 0.4 W 50 85 27 46 990.2 990.2 12.2
28/03:30pm 16.2 7.1 15.2 94 0.6 W 57 80 31 43 990.5 990.5 9.0
28/03:26pm 16.9 8.6 15.9 94 0.6 WNW 54 80 29 43 990.0 990.0 8.6
28/03:22pm 18.2 12.2 16.9 92 0.8 WNW 44 78 24 42 989.4 989.4 8.2
28/03:21pm 19.1 13.6 17.6 91 0.9 WNW 43 78 23 42 989.3 989.3 8.2
28/03:20pm 19.0 13.9 17.8 93 0.7 WNW 41 69 22 37 988.8 988.8 8.2
28/03:13pm 17.0 10.8 15.9 93 0.6 NW 43 85 23 46 987.3 987.3 7.8
28/03:10pm 18.9 13.5 17.0 89 1.1 NW 41 85 22 46 988.5 988.5 4.0
28/03:09pm 20.7 15.9 16.5 77 2.5 NW 37 54 20 29 988.2 988.2 2.2
28/03:00pm 21.8 11.9 14.2 62 4.5 N 59 87 32 47 988.8 988.8 1.0
28/02:58pm 24.7 14.5 15.3 56 5.7 N 63 87 34 47 988.7 988.7 1.0
28/02:52pm 24.3 15.7 16.0 60 5.0 NNE 56 87 30 47 986.7 986.7 1.0
28/02:47pm 23.4 16.0 16.2 64 4.4 NNE 50 69 27 37 987.6 987.6 1.0
28/02:30pm 22.3 13.8 16.8 71 3.4 NNE 57 78 31 42 989.6 989.6 0.8
28/02:00pm 24.8 14.1 15.1 54 5.8 NNE 65 87 35 47 991.2 991.2 0.8
28/01:54pm 25.5 14.9 15.2 53 6.2 N 65 87 35 47 991.4 991.4 0.8
28/01:30pm 25.3 16.9 15.6 55 5.9 N 54 72 29 39 993.4 993.4 0.8
28/01:00pm 23.9 14.8 15.4 59 5.1 N 57 76 31 41 994.5 994.5 0.8
28/12:30pm 22.5 13.5 15.1 63 4.4 N 56 78 30 42 996.0 996.0 0.8
28/12:00pm 22.8 12.3 14.6 60 4.9 N 63 83 34 45 996.6 996.6 0.8
28/11:30am 21.8 12.5 14.7 64 4.2 N 57 76 31 41 997.3 997.3 0.8
28/11:00am 21.0 13.3 13.2 61 4.5 N 46 65 25 35 998.3 998.3 0.8
28/10:31am 19.1 13.8 12.6 66 3.6 NNE 32 50 17 27 999.2 999.2 0.8
28/10:30am 19.2 14.2 13.4 69 3.3 NNE 32 43 17 23 999.2 999.2 0.8
28/10:01am 17.1 11.9 12.8 76 2.4 N 32 50 17 27 999.8 999.8 0.4
28/10:00am 17.0 11.6 12.7 76 2.4 N 33 50 18 27 999.8 999.8 0.4
28/09:52am 18.1 11.7 11.9 67 3.4 N 37 50 20 27 1000.6 1000.6 0.2
28/09:40am 20.4 14.5 10.5 53 5.4 NNE 32 50 17 27 999.0 999.0 0.0
28/09:30am 20.8 16.2 9.7 49 6.0 NNE 24 35 13 19 999.6 999.6 0.0
28/09:00am 17.6 15.6 8.5 55 4.7 NE 9 15 5 8 1000.9 1000.9 0.0
28/08:30am 17.1 13.9 6.9 51 5.1 NNE 13 22 7 12 1001.8 1001.8 0.0
28/08:00am 17.0 14.8 5.3 46 5.6 E 6 9 3 5 1003.1 1003.1 0.0
28/07:30am 14.6 12.3 7.4 62 3.6 SE 9 11 5 6 1003.9 1003.9 0.0
28/07:00am 11.9 10.2 8.2 78 1.8 SSW 7 11 4 6 1004.8 1004.8 0.0
28/06:30am 7.9 4.9 6.2 89 0.8 SW 11 13 6 7 1005.3 1005.3 0.0
28/06:27am 7.6 4.6 5.9 89 0.8 SW 11 13 6 7 1005.4 1005.4 0.0
28/06:00am 6.3 3.4 4.6 89 0.7 SW 9 11 5 6 1005.8 1005.8 0.0
28/05:30am 6.3 3.8 4.5 88 0.8 SSW 7 9 4 5 1006.1 1006.1 0.0
28/05:04am 6.2 3.6 4.0 86 0.9 SSE 7 11 4 6 1006.2 1006.2 0.0
28/05:00am 6.5 4.0 4.7 88 0.8 S 7 11 4 6 1005.9 1005.9 0.0
28/04:56am 6.1 3.6 3.9 86 0.9 SW 6 7 3 4 1005.9 1005.9 0.0
28/04:30am 6.7 3.5 5.0 89 0.7 WSW 11 15 6 8 1007.0 1007.0 0.0
28/04:00am 6.0 3.0 4.2 88 0.8 W 9 11 5 6 1007.4 1007.4 0.0
28/03:30am 7.8 6.7 5.1 83 1.2 CALM 0 0 0 0 1007.9 1007.8 0.0
28/03:29am 7.9 6.8 5.2 83 1.2 CALM 0 0 0 0 1007.9 1007.8 0.0
28/03:14am 7.5 6.4 5.0 84 1.1 CALM 0 0 0 0 1008.3 1008.2 0.0
28/03:00am 7.0 4.7 4.8 86 1.0 SSW 6 7 3 4 1008.7 1008.6 0.0
28/02:30am 7.6 5.2 5.4 86 1.0 SW 7 9 4 5 1009.4 1009.3 0.0
28/02:00am 7.4 4.7 5.5 88 0.8 SW 9 13 5 7 1009.9 1009.8 0.0
28/01:30am 7.8 4.8 5.8 87 0.9 W 11 13 6 7 1010.6 1010.5 0.0
28/01:00am 8.1 4.8 6.2 88 0.9 WSW 13 15 7 8 1011.2 1011.1 0.0
28/12:30am 8.8 6.5 5.7 81 1.4 SE 7 9 4 5 1011.4 1011.3 0.0
28/12:17am 8.9 6.9 6.2 83 1.2 SE 6 7 3 4 1011.7 1011.6 0.0
28/12:00am 9.1 7.1 6.2 82 1.3 SE 6 9 3 5 1011.9 1011.8 0.0
 
Date/Time
CST
Temp
°C
App
Temp
°C
Dew
Point
°C
Rel
Hum
%
Delta-T
°C
Wind Press
QNH
hPa
Press
MSL
hPa
Rain since
9am
mm
Dir  Spd
km/h
Gust
km/h
Spd
kts
Gust
kts
27/11:42pm 9.4 7.3 6.5 82 1.3 SSW 7 9 4 5 1012.2 1012.1 0.0
27/11:30pm 9.2 6.3 6.5 83 1.3 SW 11 11 6 6 1012.3 1012.2 0.0
27/11:00pm 9.3 7.2 6.6 83 1.3 W 7 9 4 5 1012.4 1012.3 0.0
27/10:30pm 9.7 8.6 6.8 82 1.4 SE 2 9 1 5 1012.8 1012.7 0.0
27/10:14pm 11.0 9.6 7.3 78 1.8 ESE 4 7 2 4 1012.8 1012.7 0.0
27/10:00pm 10.9 9.0 6.8 76 1.9 ESE 6 7 3 4 1012.9 1012.8 0.0
27/09:30pm 12.6 9.9 7.5 71 2.5 SE 11 15 6 8 1013.0 1012.9 0.0
27/09:00pm 12.7 9.7 7.6 71 2.5 ESE 13 15 7 8 1013.3 1013.2 0.0
27/08:30pm 13.5 10.1 7.5 67 2.9 ESE 15 17 8 9 1013.4 1013.3 0.0
27/08:00pm 14.8 11.4 6.1 56 4.2 SE 13 15 7 8 1013.4 1013.3 0.0
27/07:30pm 15.1 11.6 5.6 53 4.5 ESE 13 15 7 8 1013.4 1013.3 0.0
27/07:00pm 15.5 12.1 6.0 53 4.6 ESE 13 17 7 9 1013.4 1013.3 0.0
27/06:30pm 16.2 13.3 6.6 53 4.7 ESE 11 17 6 9 1013.3 1013.2 0.0
27/06:00pm 18.2 15.5 5.8 44 6.1 ENE 9 15 5 8 1013.4 1013.3 0.0
27/05:30pm 19.4 16.5 4.4 37 7.2 NNE 9 13 5 7 1013.3 1013.2 0.0
27/05:12pm 19.7 15.8 3.4 34 7.7 NNE 13 17 7 9 1013.3 1013.2 0.0
27/05:00pm 20.2 17.2 4.3 35 7.7 NNE 9 15 5 8 1013.3 1013.2 0.0
27/04:30pm 20.1 17.0 3.8 34 7.8 ESE 9 13 5 7 1013.7 1013.6 0.0
27/04:00pm 20.6 18.0 3.3 32 8.2 WNW 6 13 3 7 1013.8 1013.7 0.0
27/03:32pm 20.0 16.8 3.3 33 7.9 W 9 13 5 7 1013.8 1013.7 0.0
27/03:30pm 19.8 17.0 3.1 33 7.8 NW 7 13 4 7 1013.8 1013.7 0.0
27/03:00pm 20.2 17.4 3.4 33 7.9 NNW 7 11 4 6 1014.1 1014.0 0.0
27/02:30pm 19.2 16.1 3.4 35 7.4 NNE 9 13 5 7 1014.4 1014.3 0.0
27/02:00pm 18.8 15.4 3.8 37 7.1 NNW 11 22 6 12 1014.9 1014.8 0.0
27/01:30pm 18.2 15.6 4.4 40 6.6 SSW 7 11 4 6 1015.6 1015.5 0.0
27/01:00pm 17.9 14.5 3.8 39 6.6 WNW 11 20 6 11 1016.1 1016.0 0.0
27/12:30pm 17.6 14.4 4.9 43 6.1 NNW 11 20 6 11 1016.6 1016.5 0.0
27/12:00pm 17.2 14.7 4.5 43 6.0 WNW 7 13 4 7 1016.9 1016.8 0.0
27/11:30am 15.9 13.3 4.0 45 5.5 S 7 11 4 6 1017.4 1017.3 0.0
27/11:00am 15.7 12.2 3.5 44 5.6 N 11 17 6 9 1017.6 1017.5 0.0
27/10:30am 15.4 11.5 3.5 45 5.4 NNE 13 19 7 10 1017.8 1017.7 0.0
27/10:00am 15.2 12.3 4.6 49 4.9 W 9 15 5 8 1018.0 1017.9 0.0
27/09:30am 14.4 12.0 5.2 54 4.3 NNW 7 11 4 6 1018.4 1018.3 0.0
27/09:00am 13.5 11.1 5.4 58 3.8 W 7 9 4 5 1018.6 1018.5 -
27/08:30am 12.8 10.1 5.7 62 3.3 N 9 13 5 7 1018.6 1018.5 -
27/08:00am 11.8 9.5 5.9 67 2.8 N 7 11 4 6 1018.3 1018.2 -
27/07:30am 10.0 7.9 6.0 76 1.8 W 6 7 3 4 1018.2 1018.1 -
27/07:00am 6.6 4.3 4.8 88 0.8 WSW 6 9 3 5 1018.0 1017.9 -
27/06:30am 4.8 2.9 3.1 89 0.7 W 2 6 1 3 1017.8 1017.7 -
27/06:00am 5.1 2.6 3.6 90 0.6 WNW 6 9 3 5 1017.5 1017.4 -
27/05:30am 5.4 1.9 3.7 89 0.7 WNW 11 13 6 7 1017.0 1016.9 -
27/05:00am 6.0 2.9 3.7 85 1.0 W 9 13 5 7 1016.7 1016.6 -
27/04:30am 8.0 6.5 5.1 82 1.3 NNE 2 6 1 3 1016.3 1016.2 -

Other Formats:

Comma delimited format used in spreadsheet applications
http://www.bom.gov.au/fwo/IDS60801/IDS60801.95666.axf

JavaScript Object Notation format (JSON) in row-major order
http://www.bom.gov.au/fwo/IDS60801/IDS60801.95666.json